Time;durP1;ratioP1;P1;durP2;ratioP2;P2;SDS_P1;SDS_P2;PMS_P1;PMS_P2;Temp;Humidity;BMP_temperature;BMP_pressure;BME280_temperature;BME280_humidity;BME280_pressure;Samples;Min_cycle;Max_cycle;Signal;HPM_P1;HPM_P2
2022/06/17 00:01:58;;;;;;;16.85;9.48;;;;;;;13.02;100.00;102383.56;10259848;28;20066;-85
2022/06/17 00:07:04;;;;;;;14.73;10.23;;;;;;;12.93;100.00;102371.97;10292454;28;20054;-86
2022/06/17 00:12:06;;;;;;;15.85;11.35;;;;;;;12.89;100.00;102370.75;10275515;28;20045;-86
2022/06/17 00:17:07;;;;;;;19.83;12.82;;;;;;;12.74;100.00;102360.13;10274002;28;20573;-86
2022/06/17 00:22:08;;;;;;;19.00;13.65;;;;;;;12.75;100.00;102372.00;10291705;28;20058;-86
2022/06/17 00:27:09;;;;;;;17.30;12.88;;;;;;;12.70;100.00;102376.31;10275864;28;20426;-85
2022/06/17 00:32:10;;;;;;;17.85;13.20;;;;;;;12.59;100.00;102379.88;10271905;28;20035;-86
2022/06/17 00:37:11;;;;;;;18.98;13.75;;;;;;;12.57;100.00;102386.69;10291479;28;20046;-86
2022/06/17 00:42:13;;;;;;;18.27;13.43;;;;;;;12.49;100.00;102376.81;10274573;28;20466;-85
2022/06/17 00:47:28;;;;;;;17.88;13.25;;;;;;;12.54;100.00;102393.50;10273714;28;20077;-86
2022/06/17 00:52:36;;;;;;;17.20;12.75;;;;;;;12.45;100.00;102378.34;10275437;28;20047;-85
2022/06/17 00:57:40;;;;;;;19.30;13.18;;;;;;;12.46;100.00;102378.13;10276405;28;20066;-86
2022/06/17 01:02:53;;;;;;;19.52;12.68;;;;;;;12.51;100.00;102378.25;10290653;28;20031;-85
2022/06/17 01:08:03;;;;;;;17.17;12.52;;;;;;;12.50;100.00;102373.78;10273662;28;20061;-86
2022/06/17 01:13:05;;;;;;;17.17;12.95;;;;;;;12.49;100.00;102379.56;10273161;28;20053;-86
2022/06/17 01:18:06;;;;;;;18.08;14.57;;;;;;;12.54;100.00;102388.00;10274697;28;20039;-86
2022/06/17 01:23:12;;;;;;;21.30;13.88;;;;;;;12.37;100.00;102359.31;10275505;28;20039;-86
2022/06/17 01:28:15;;;;;;;16.27;12.63;;;;;;;12.40;100.00;102365.22;10258209;28;20035;-86
2022/06/17 01:33:18;;;;;;;20.00;14.52;;;;;;;12.35;100.00;102366.97;10290855;28;20050;-86
2022/06/17 01:38:20;;;;;;;18.13;14.80;;;;;;;12.30;100.00;102371.28;10273348;28;20585;-85
2022/06/17 01:43:21;;;;;;;22.33;16.23;;;;;;;12.18;100.00;102362.06;10240353;28;20062;-85
2022/06/17 01:48:23;;;;;;;20.90;16.52;;;;;;;12.17;100.00;102371.41;10288272;28;20031;-85
2022/06/17 01:53:27;;;;;;;22.05;16.75;;;;;;;11.94;100.00;102349.13;10274223;28;20054;-86
2022/06/17 01:58:35;;;;;;;18.33;15.38;;;;;;;12.04;100.00;102363.25;10233997;28;20050;-85
2022/06/17 02:03:41;;;;;;;21.50;16.58;;;;;;;12.06;100.00;102380.44;10264246;28;20089;-85
2022/06/17 02:08:42;;;;;;;26.53;18.37;;;;;;;11.99;100.00;102368.59;10255551;28;20036;-86
2022/06/17 02:13:42;;;;;;;23.42;17.75;;;;;;;12.09;100.00;102374.44;10267861;28;20043;-85
2022/06/17 02:18:42;;;;;;;23.52;16.75;;;;;;;12.07;100.00;102366.41;10297387;28;20380;-85
2022/06/17 02:23:43;;;;;;;20.52;17.40;;;;;;;12.08;100.00;102367.25;10295793;28;20035;-85
2022/06/17 02:28:44;;;;;;;22.23;16.45;;;;;;;12.05;100.00;102367.69;10278932;28;20054;-85
2022/06/17 02:33:48;;;;;;;18.48;14.50;;;;;;;11.99;100.00;102363.09;10279022;28;20033;-86
2022/06/17 02:38:49;;;;;;;23.00;14.55;;;;;;;11.90;100.00;102362.53;10279223;28;20069;-85
2022/06/17 02:43:54;;;;;;;20.05;14.73;;;;;;;11.83;100.00;102351.53;10270848;28;20046;-85
2022/06/17 02:49:00;;;;;;;22.98;14.85;;;;;;;11.87;100.00;102366.56;10278655;28;20121;-86
2022/06/17 02:54:02;;;;;;;19.00;13.93;;;;;;;11.81;100.00;102355.59;10295052;28;20055;-86
2022/06/17 02:59:29;;;;;;;18.63;12.90;;;;;;;11.80;100.00;102359.41;10297371;28;20042;-86
2022/06/17 03:04:31;;;;;;;18.80;13.38;;;;;;;11.74;100.00;102355.69;10292717;28;20105;-85
2022/06/17 03:09:32;;;;;;;18.48;14.02;;;;;;;11.64;100.00;102349.81;10261292;28;20039;-85
2022/06/17 03:14:41;;;;;;;18.25;13.00;;;;;;;11.68;100.00;102362.09;10294295;28;20043;-86
2022/06/17 03:19:42;;;;;;;16.83;13.52;;;;;;;11.63;100.00;102348.13;10278605;28;20027;-86
2022/06/17 03:25:04;;;;;;;21.20;13.85;;;;;;;11.59;100.00;102338.59;10276687;28;20035;-85
2022/06/17 03:30:05;;;;;;;18.65;13.07;;;;;;;11.63;100.00;102348.13;10277982;28;20067;-86
2022/06/17 03:35:05;;;;;;;16.00;13.23;;;;;;;11.65;100.00;102348.72;10294838;28;20513;-85
2022/06/17 03:40:14;;;;;;;19.50;13.05;;;;;;;11.69;100.00;102338.94;10278368;28;20066;-85
2022/06/17 03:45:16;;;;;;;17.83;14.18;;;;;;;11.93;100.00;102352.97;10277961;28;20042;-86
2022/06/17 03:50:37;;;;;;;19.88;12.50;;;;;;;12.11;100.00;102350.22;10292335;28;20050;-85
2022/06/17 03:55:37;;;;;;;16.35;11.45;;;;;;;12.43;100.00;102364.75;10275936;28;20097;-86
2022/06/17 04:00:45;;;;;;;15.70;12.60;;;;;;;12.63;100.00;102367.28;10292382;28;20448;-86
2022/06/17 04:05:49;;;;;;;15.43;10.73;;;;;;;12.88;100.00;102350.56;10291108;28;20047;-85
2022/06/17 04:10:49;;;;;;;14.05;10.52;;;;;;;12.99;100.00;102346.16;10276403;28;20063;-85
2022/06/17 04:15:57;;;;;;;16.02;10.40;;;;;;;12.99;100.00;102368.28;10290996;28;20121;-86
2022/06/17 04:20:58;;;;;;;11.90;9.68;;;;;;;13.13;100.00;102364.25;10274907;28;20423;-86
2022/06/17 04:26:06;;;;;;;11.45;9.50;;;;;;;13.13;100.00;102336.59;10292001;28;20043;-86
2022/06/17 04:31:07;;;;;;;14.68;10.32;;;;;;;13.44;100.00;102342.97;10291860;28;20043;-85
2022/06/17 04:36:13;;;;;;;16.58;9.23;;;;;;;13.75;100.00;102340.13;10292197;28;20584;-86
2022/06/17 04:41:13;;;;;;;14.35;9.88;;;;;;;14.07;100.00;102357.19;10290400;28;20031;-86
2022/06/17 04:46:17;;;;;;;13.32;8.93;;;;;;;14.21;100.00;102335.63;10275416;28;20046;-85
2022/06/17 04:51:17;;;;;;;14.45;9.13;;;;;;;14.45;100.00;102355.81;10277972;28;20081;-85
2022/06/17 04:56:28;;;;;;;11.55;8.95;;;;;;;14.62;100.00;102358.72;10267127;28;20054;-85
2022/06/17 05:01:28;;;;;;;9.70;8.07;;;;;;;14.87;100.00;102355.63;10279340;28;20074;-86
2022/06/17 05:06:29;;;;;;;13.65;9.10;;;;;;;15.07;100.00;102363.50;10277519;28;20027;-85
2022/06/17 05:11:34;;;;;;;16.98;9.13;;;;;;;15.19;100.00;102371.75;10292818;28;20035;-85
2022/06/17 05:16:34;;;;;;;11.65;7.50;;;;;;;15.28;100.00;102361.94;10289014;28;20077;-86
2022/06/17 05:21:35;;;;;;;10.98;7.32;;;;;;;15.32;100.00;102363.13;10292695;28;20057;-85
2022/06/17 05:26:35;;;;;;;13.70;8.60;;;;;;;15.36;100.00;102363.44;10290699;28;20030;-85
2022/06/17 05:31:36;;;;;;;12.98;8.90;;;;;;;15.37;100.00;102367.91;10290863;28;20031;-85
2022/06/17 05:36:36;;;;;;;11.55;8.35;;;;;;;15.39;100.00;102366.56;10298247;28;20053;-86
2022/06/17 05:41:37;;;;;;;12.73;8.85;;;;;;;15.40;100.00;102356.31;10297030;28;20039;-85
2022/06/17 05:46:37;;;;;;;10.50;8.25;;;;;;;15.49;100.00;102358.41;10281676;28;20043;-86
2022/06/17 05:51:38;;;;;;;11.50;9.32;;;;;;;15.60;100.00;102345.53;10299255;28;20066;-85
2022/06/17 05:56:38;;;;;;;12.90;8.05;;;;;;;15.78;100.00;102341.72;10295623;28;20071;-82
2022/06/17 06:01:39;;;;;;;12.18;8.07;;;;;;;16.01;100.00;102349.00;10260147;28;20055;-86
2022/06/17 06:06:39;;;;;;;13.00;8.30;;;;;;;16.25;100.00;102344.06;10297772;28;20282;-86
2022/06/17 06:11:40;;;;;;;14.18;9.63;;;;;;;16.49;100.00;102341.03;10298487;28;20046;-84
2022/06/17 06:16:40;;;;;;;13.23;8.23;;;;;;;16.75;100.00;102343.03;10297416;28;20046;-85
2022/06/17 06:21:41;;;;;;;11.70;7.95;;;;;;;16.86;100.00;102332.88;10281237;28;20035;-87
2022/06/17 06:26:41;;;;;;;11.90;8.63;;;;;;;17.10;100.00;102330.66;10257341;28;20059;-86
2022/06/17 06:31:42;;;;;;;10.57;8.52;;;;;;;17.17;100.00;102335.16;10288577;28;20105;-85
2022/06/17 06:36:42;;;;;;;13.57;8.43;;;;;;;17.17;100.00;102333.22;10298168;28;20050;-87
2022/06/17 06:41:43;;;;;;;12.13;7.60;;;;;;;17.29;100.00;102335.84;10296559;28;20125;-85
2022/06/17 06:46:43;;;;;;;12.43;8.80;;;;;;;17.47;100.00;102337.41;10296484;28;20035;-86
2022/06/17 06:51:44;;;;;;;11.18;8.82;;;;;;;17.44;100.00;102330.41;10297553;28;20118;-82
2022/06/17 06:56:44;;;;;;;12.88;8.93;;;;;;;17.50;100.00;102342.41;10296498;28;21084;-85
2022/06/17 07:01:45;;;;;;;11.52;8.55;;;;;;;17.72;100.00;102343.16;10297464;28;20411;-84
2022/06/17 07:06:46;;;;;;;12.98;8.52;;;;;;;18.01;100.00;102333.66;10283725;28;20113;-85
2022/06/17 07:11:46;;;;;;;13.30;8.20;;;;;;;18.21;100.00;102330.13;10292023;28;20047;-85
2022/06/17 07:16:47;;;;;;;12.05;7.75;;;;;;;18.33;100.00;102317.66;10274605;28;20058;-84
2022/06/17 07:21:48;;;;;;;10.00;7.63;;;;;;;18.61;100.00;102312.75;10271629;28;20047;-85
2022/06/17 07:26:49;;;;;;;11.45;8.05;;;;;;;18.90;100.00;102323.47;10288899;28;20069;-85
2022/06/17 07:31:49;;;;;;;11.00;7.75;;;;;;;19.18;100.00;102327.69;10296494;28;20054;-86
2022/06/17 07:42:09;;;;;;;10.52;6.88;;;;;;;19.50;100.00;102319.06;10273259;28;20043;-85
2022/06/17 07:47:13;;;;;;;11.82;6.35;;;;;;;19.64;100.00;102301.75;10273148;28;20039;-85
2022/06/17 07:52:13;;;;;;;10.45;6.30;;;;;;;19.76;100.00;102299.50;10270561;28;20062;-86
2022/06/17 07:57:16;;;;;;;10.25;6.05;;;;;;;19.89;100.00;102304.50;10275408;28;20046;-85
2022/06/17 08:02:16;;;;;;;8.52;6.53;;;;;;;19.93;100.00;102297.25;10272595;28;20035;-86
2022/06/17 08:07:17;;;;;;;11.32;6.20;;;;;;;20.00;100.00;102305.31;10278382;28;20030;-86
2022/06/17 08:12:17;;;;;;;9.00;5.65;;;;;;;20.10;100.00;102296.06;10288366;28;20321;-86
2022/06/17 08:17:18;;;;;;;10.55;6.05;;;;;;;20.70;100.00;102296.13;10273096;28;20372;-85
2022/06/17 08:22:19;;;;;;;8.98;5.10;;;;;;;21.34;100.00;102272.69;10274181;28;20039;-85
2022/06/17 08:27:19;;;;;;;8.75;5.97;;;;;;;21.67;100.00;102269.34;10255473;28;20129;-85
2022/06/17 08:37:39;;;;;;;6.38;5.15;;;;;;;21.84;94.50;102257.66;10282162;28;20307;-86
2022/06/17 08:42:51;;;;;;;8.63;5.55;;;;;;;22.04;92.67;102262.22;10253788;28;20043;-86
2022/06/17 08:47:55;;;;;;;9.68;5.38;;;;;;;22.18;92.59;102251.94;10264680;28;20094;-86
2022/06/17 08:53:17;;;;;;;9.27;4.78;;;;;;;22.86;92.83;102247.06;10285755;28;20049;-92
2022/06/17 08:59:00;;;;;;;19.67;5.47;;;;;;;23.17;83.29;102227.78;10294547;28;20050;-91
2022/06/17 09:04:35;;;;;;;8.30;3.70;;;;;;;23.49;85.00;102249.41;10264894;28;20452;-86
2022/06/17 09:09:41;;;;;;;7.70;4.00;;;;;;;23.77;80.98;102233.47;10259539;28;20131;-86
2022/06/17 09:14:51;;;;;;;7.68;4.25;;;;;;;23.77;79.54;102225.03;10301044;28;20145;-86
2022/06/17 09:19:55;;;;;;;7.72;4.45;;;;;;;23.52;79.24;102226.31;10299765;28;20053;-86
2022/06/17 09:24:58;;;;;;;7.10;4.28;;;;;;;23.32;81.40;102229.50;10298681;28;20039;-86
2022/06/17 09:30:01;;;;;;;11.52;5.18;;;;;;;22.88;79.90;102226.00;10283031;28;20047;-86
2022/06/17 09:35:05;;;;;;;8.05;3.83;;;;;;;22.86;81.28;102233.91;10299579;28;20105;-88
2022/06/17 09:40:26;;;;;;;7.85;4.63;;;;;;;23.17;79.19;102214.59;10298244;28;20081;-84
2022/06/17 09:45:39;;;;;;;7.72;4.07;;;;;;;23.11;79.66;102213.00;10284892;28;20050;-86
2022/06/17 09:51:00;;;;;;;8.27;3.42;;;;;;;23.70;85.99;102229.34;10258615;28;20067;-87
2022/06/17 09:56:21;;;;;;;10.05;5.00;;;;;;;23.77;78.18;102213.78;10283169;28;20035;-86
2022/06/17 10:01:21;;;;;;;9.40;3.80;;;;;;;23.52;77.43;102209.47;10294524;28;20098;-86
2022/06/17 10:07:00;;;;;;;7.25;3.47;;;;;;;24.33;76.61;102197.69;10282124;28;20046;-86
2022/06/17 10:12:29;;;;;;;10.35;4.80;;;;;;;24.73;73.66;102200.69;10298011;28;20054;-86
2022/06/17 10:23:38;;;;;;;6.95;3.80;;;;;;;24.38;75.96;102199.53;10299094;28;20078;-86
2022/06/17 10:29:11;;;;;;;6.47;3.85;;;;;;;24.10;74.44;102201.56;10298738;28;20061;-88
2022/06/17 10:34:33;;;;;;;6.35;3.70;;;;;;;23.78;75.93;102208.97;10296951;28;20050;-85
2022/06/17 10:39:34;;;;;;;6.70;3.40;;;;;;;23.43;74.74;102218.91;10275216;28;20045;-86
2022/06/17 10:44:35;;;;;;;6.82;4.03;;;;;;;23.35;75.30;102221.28;10280581;28;20041;-94
2022/06/17 10:49:44;;;;;;;8.50;4.13;;;;;;;23.51;76.31;102213.41;10257638;28;20166;-89
2022/06/17 10:54:46;;;;;;;10.70;4.88;;;;;;;23.37;77.20;102218.16;10261569;28;20042;-86
2022/06/17 10:59:46;;;;;;;8.27;4.38;;;;;;;23.47;76.42;102211.53;10265743;28;20047;-86
2022/06/17 11:04:51;;;;;;;8.40;4.47;;;;;;;23.49;76.67;102212.06;10266095;28;20042;-86
2022/06/17 11:09:56;;;;;;;7.70;5.00;;;;;;;23.62;75.79;102204.78;10260864;28;20036;-86
2022/06/17 11:15:03;;;;;;;10.65;5.40;;;;;;;23.85;78.32;102195.31;10293201;28;20042;-86
2022/06/17 11:20:24;;;;;;;12.35;5.68;;;;;;;24.23;75.25;102172.59;10259634;28;20102;-86
2022/06/17 11:25:30;;;;;;;6.35;3.95;;;;;;;24.81;74.78;102201.94;10275966;28;20049;-86
2022/06/17 11:30:31;;;;;;;11.40;4.47;;;;;;;24.86;72.17;102186.88;10273475;28;20519;-86
2022/06/17 11:35:32;;;;;;;7.07;4.32;;;;;;;25.43;70.81;102173.00;10264879;28;20042;-86
2022/06/17 11:40:33;;;;;;;6.43;3.27;;;;;;;26.12;72.98;102186.53;10255441;28;20075;-86
2022/06/17 11:45:35;;;;;;;9.45;3.45;;;;;;;26.78;69.64;102149.72;10264059;28;20274;-85
2022/06/17 11:50:40;;;;;;;12.13;3.88;;;;;;;27.45;64.15;102140.91;10240989;28;20047;-85
2022/06/17 11:55:43;;;;;;;7.65;3.20;;;;;;;27.54;61.60;102117.06;10289510;28;20066;-86
2022/06/17 12:00:51;;;;;;;11.32;4.25;;;;;;;27.56;62.16;102120.41;10293988;28;20035;-86
2022/06/17 12:05:59;;;;;;;8.15;3.45;;;;;;;27.88;59.71;102091.78;10292932;28;20074;-85
2022/06/17 12:11:04;;;;;;;7.40;3.40;;;;;;;27.54;61.64;102107.78;10277688;28;20055;-84
2022/06/17 12:16:16;;;;;;;6.53;3.45;;;;;;;26.82;61.33;102098.19;10261756;28;20055;-84
2022/06/17 12:21:22;;;;;;;7.20;3.40;;;;;;;26.96;62.78;102087.53;10276188;28;20058;-85
2022/06/17 12:26:27;;;;;;;6.83;3.60;;;;;;;27.33;62.85;102091.56;10291555;28;20051;-85
2022/06/17 12:31:48;;;;;;;15.77;4.73;;;;;;;27.72;59.88;102071.69;10261175;28;20266;-86
2022/06/17 12:36:51;;;;;;;4.03;3.00;;;;;;;27.96;65.32;102082.38;10293254;28;20462;-84
2022/06/17 12:42:04;;;;;;;8.75;3.20;;;;;;;28.36;62.73;102065.75;10275059;28;20493;-84
2022/06/17 12:47:22;;;;;;;5.75;3.22;;;;;;;28.04;59.73;102021.22;10293530;28;20081;-85
2022/06/17 12:58:11;;;;;;;9.65;3.20;;;;;;;29.41;60.00;102041.88;10278677;28;20046;-83
2022/06/17 13:03:14;;;;;;;9.27;3.60;;;;;;;30.08;55.98;102030.19;10274382;28;20066;-83
2022/06/17 13:08:40;;;;;;;7.72;3.15;;;;;;;30.01;54.10;102022.25;10292692;28;20046;-83
2022/06/17 13:14:11;;;;;;;7.57;3.67;;;;;;;29.50;52.15;102014.22;10294909;28;20050;-84
2022/06/17 13:19:29;;;;;;;4.70;2.75;;;;;;;29.31;53.84;102014.84;10331460;28;20042;-85
2022/06/17 13:24:35;;;;;;;5.68;3.05;;;;;;;28.76;53.88;102005.66;10268800;28;20050;-84
2022/06/17 13:29:54;;;;;;;4.10;2.88;;;;;;;28.33;54.51;102014.63;10275691;28;20066;-79
2022/06/17 13:35:03;;;;;;;5.70;3.28;;;;;;;28.07;55.40;102023.34;10292789;28;20070;-78
2022/06/17 13:40:13;;;;;;;4.43;2.97;;;;;;;27.87;59.39;102028.69;10274687;28;20042;-79
2022/06/17 13:45:28;;;;;;;7.85;2.95;;;;;;;27.27;61.29;102027.06;10275102;28;20047;-78
2022/06/17 13:50:36;;;;;;;5.28;2.60;;;;;;;26.67;60.59;102015.66;10292482;28;20074;-78
2022/06/17 13:56:01;;;;;;;5.40;2.33;;;;;;;26.29;58.83;102002.22;10296608;28;20061;-78
2022/06/17 14:01:25;;;;;;;4.35;2.30;;;;;;;26.56;60.83;102015.16;10296583;28;20054;-78
2022/06/17 14:06:48;;;;;;;5.85;2.65;;;;;;;26.95;61.23;102016.03;10299342;28;20039;-78
2022/06/17 14:11:48;;;;;;;6.28;2.40;;;;;;;27.65;62.04;102006.38;10297678;28;20102;-77
2022/06/17 14:17:03;;;;;;;8.50;2.55;;;;;;;28.24;58.29;101986.41;10295556;28;20047;-76
2022/06/17 14:22:03;;;;;;;12.90;2.63;;;;;;;28.40;57.44;101975.22;10281532;28;20042;-77
2022/06/17 14:27:04;;;;;;;6.18;2.00;;;;;;;29.95;58.26;101967.78;10281914;28;20395;-78
2022/06/17 14:32:19;;;;;;;6.45;2.28;;;;;;;31.52;52.57;101960.88;10264469;28;20554;-78
2022/06/17 14:37:31;;;;;;;6.05;2.47;;;;;;;31.64;53.01;101962.75;10240681;28;20125;-78
2022/06/17 14:42:35;;;;;;;5.82;2.30;;;;;;;30.53;49.92;101932.44;10285660;28;20043;-78
2022/06/17 14:48:10;;;;;;;11.43;4.40;;;;;;;30.63;52.61;101948.13;10295960;28;20043;-78
2022/06/17 14:53:10;;;;;;;3.67;1.98;;;;;;;31.20;49.95;101915.41;10296975;28;20065;-78
2022/06/17 14:58:13;;;;;;;8.17;2.57;;;;;;;30.62;49.09;101913.19;10297062;28;20054;-79
2022/06/17 15:03:19;;;;;;;8.10;2.53;;;;;;;30.18;53.21;101916.06;10286667;28;20282;-78
2022/06/17 15:08:25;;;;;;;4.30;2.53;;;;;;;30.51;48.95;101900.72;10295085;28;20439;-78
2022/06/17 15:18:44;;;;;;;3.47;1.90;;;;;;;30.40;52.65;101928.03;10292023;28;20046;-78
2022/06/17 15:24:23;;;;;;;5.10;2.40;;;;;;;29.66;50.83;101905.63;10277905;28;20031;-78
2022/06/17 15:29:23;;;;;;;4.93;3.03;;;;;;;29.83;50.05;101898.84;10295093;28;20494;-77
2022/06/17 15:34:31;;;;;;;5.53;2.10;;;;;;;30.18;48.14;101890.53;10293777;28;20047;-78
2022/06/17 15:39:32;;;;;;;4.80;2.22;;;;;;;29.85;52.36;101897.31;10293831;28;20135;-78
2022/06/17 15:44:35;;;;;;;5.43;2.35;;;;;;;28.98;54.41;101902.34;10295203;28;20038;-78
2022/06/17 15:49:36;;;;;;;3.53;2.10;;;;;;;28.51;56.24;101904.84;10293704;28;20034;-77
2022/06/17 15:54:36;;;;;;;5.75;2.30;;;;;;;28.25;56.37;101910.78;10269512;28;20055;-79
2022/06/17 15:59:37;;;;;;;6.45;2.38;;;;;;;27.88;54.70;101885.19;10244341;28;20031;-78
2022/06/17 16:04:39;;;;;;;5.45;2.33;;;;;;;27.71;58.26;101898.28;10292660;28;20039;-78
2022/06/17 16:09:45;;;;;;;4.35;2.25;;;;;;;27.62;60.18;101910.84;10295122;28;20086;-77
2022/06/17 16:14:57;;;;;;;5.25;2.58;;;;;;;27.56;60.50;101907.44;10292488;28;20050;-77
2022/06/17 16:20:05;;;;;;;5.25;2.70;;;;;;;27.62;63.05;101916.50;10272889;28;20043;-78
2022/06/17 16:25:12;;;;;;;8.98;2.28;;;;;;;27.64;62.26;101902.84;10254900;28;20035;-77
2022/06/17 16:30:23;;;;;;;5.43;2.72;;;;;;;27.60;64.18;101908.41;10275371;28;20085;-77
2022/06/17 16:35:46;;;;;;;5.03;2.45;;;;;;;27.58;64.19;101905.09;10265329;28;20035;-77
2022/06/17 16:46:07;;;;;;;7.20;2.10;;;;;;;27.67;65.13;101886.03;10252210;28;20143;-77
2022/06/17 16:51:08;;;;;;;9.02;2.50;;;;;;;27.78;66.22;101883.56;10255649;28;20242;-77
2022/06/17 16:56:16;;;;;;;12.07;3.53;;;;;;;27.85;64.25;101857.56;10241151;28;20054;-78
2022/06/17 17:01:18;;;;;;;5.60;2.83;;;;;;;28.38;64.11;101876.47;10269430;28;20035;-77
2022/06/17 17:06:19;;;;;;;6.97;2.58;;;;;;;28.50;62.43;101867.16;10274127;28;20055;-77
2022/06/17 17:11:19;;;;;;;4.25;2.35;;;;;;;28.46;64.82;101848.38;10255248;28;20115;-78
2022/06/17 17:16:20;;;;;;;5.85;2.33;;;;;;;28.10;60.96;101835.84;10287201;28;20476;-77
2022/06/17 17:21:23;;;;;;;4.43;2.63;;;;;;;27.56;64.00;101828.22;10278510;28;20038;-77
2022/06/17 17:26:24;;;;;;;5.30;2.40;;;;;;;27.27;66.01;101826.34;10293460;28;20027;-77
2022/06/17 17:31:30;;;;;;;6.50;2.28;;;;;;;27.20;67.54;101826.03;10285908;28;20046;-77
2022/06/17 17:36:30;;;;;;;5.72;2.30;;;;;;;26.95;68.41;101770.19;10300444;28;20035;-77
2022/06/17 17:41:31;;;;;;;4.72;2.42;;;;;;;27.31;68.06;101813.16;10282131;28;20043;-78
2022/06/17 17:46:33;;;;;;;4.60;2.58;;;;;;;27.12;67.38;101791.84;10287850;28;20618;-78
2022/06/17 17:51:33;;;;;;;3.20;2.38;;;;;;;27.04;67.89;101794.72;10263947;28;20090;-78
2022/06/17 17:56:34;;;;;;;4.50;2.80;;;;;;;26.71;68.83;101773.72;10275919;28;20063;-78
2022/06/17 18:01:43;;;;;;;5.78;2.92;;;;;;;26.55;68.53;101784.72;10252259;28;20042;-77
2022/06/17 18:06:43;;;;;;;5.70;2.05;;;;;;;26.35;69.80;101783.50;10281494;28;20039;-78
2022/06/17 18:11:45;;;;;;;4.25;1.88;;;;;;;26.15;71.20;101787.13;10277193;28;20038;-78
2022/06/17 18:16:46;;;;;;;5.68;2.28;;;;;;;25.96;71.10;101796.81;10268432;28;20047;-78
2022/06/17 18:21:46;;;;;;;4.22;2.22;;;;;;;25.86;72.97;101799.97;10272286;28;20102;-79
2022/06/17 18:26:49;;;;;;;3.83;2.47;;;;;;;25.60;74.71;101790.75;10272422;28;20036;-78
2022/06/17 18:31:50;;;;;;;4.97;2.40;;;;;;;25.35;76.00;101791.28;10271899;28;20089;-78
2022/06/17 18:36:50;;;;;;;2.97;2.00;;;;;;;25.05;79.26;101790.25;10269010;28;20058;-77
2022/06/17 18:47:13;;;;;;;6.13;2.35;;;;;;;24.47;81.19;101766.94;10275218;28;20035;-78
2022/06/17 18:52:15;;;;;;;6.55;2.33;;;;;;;24.26;84.26;101786.41;10278391;28;20142;-77
2022/06/17 18:57:16;;;;;;;2.90;2.20;;;;;;;23.68;86.88;101722.78;10272831;28;20043;-77
2022/06/17 19:02:26;;;;;;;6.63;2.55;;;;;;;23.76;89.74;101772.59;10240090;28;20031;-76
2022/06/17 19:17:22;;;;;;;5.38;1.95;;;;;;;23.52;92.81;101759.75;10291705;28;20051;-77
2022/06/17 19:18:08;;;;;;;5.47;2.08;;;;;;;23.25;95.92;101762.69;10293739;28;20074;-77
2022/06/17 19:23:12;;;;;;;4.35;2.10;;;;;;;23.05;97.40;101756.44;10278316;28;20050;-78
2022/06/17 19:28:13;;;;;;;4.32;2.35;;;;;;;22.80;98.56;101742.94;10293950;28;20613;-77
2022/06/17 19:33:13;;;;;;;7.47;2.60;;;;;;;22.65;100.00;101733.72;10278125;28;20043;-78
2022/06/17 19:38:19;;;;;;;4.78;2.15;;;;;;;22.51;100.00;101749.75;10277355;28;20050;-77
2022/06/17 19:43:19;;;;;;;4.97;2.15;;;;;;;22.18;100.00;101730.25;10287808;28;20034;-82
2022/06/17 19:48:20;;;;;;;3.10;2.00;;;;;;;22.11;100.00;101769.09;10266803;28;20034;-80
2022/06/17 19:53:21;;;;;;;3.35;2.67;;;;;;;21.79;100.00;101744.75;10267319;28;20071;-79
2022/06/17 19:58:21;;;;;;;4.25;2.33;;;;;;;21.32;100.00;101716.72;10290049;28;20043;-81
2022/06/17 20:03:23;;;;;;;3.58;2.40;;;;;;;21.32;100.00;101764.34;10292153;28;20046;-82
2022/06/17 20:08:23;;;;;;;4.60;2.33;;;;;;;21.12;100.00;101771.91;10268029;28;20644;-82
2022/06/17 20:13:24;;;;;;;5.22;2.65;;;;;;;20.88;100.00;101760.00;10275141;28;20106;-82
2022/06/17 20:18:25;;;;;;;6.68;2.67;;;;;;;20.73;100.00;101775.88;10268798;28;20062;-82
2022/06/17 20:23:29;;;;;;;4.40;2.75;;;;;;;20.54;100.00;101755.41;10285161;28;20038;-84
2022/06/17 20:28:29;;;;;;;3.58;2.65;;;;;;;20.30;100.00;101747.88;10255777;28;20038;-81
2022/06/17 20:33:29;;;;;;;5.03;3.25;;;;;;;20.19;100.00;101749.13;10258741;28;20030;-81
2022/06/17 20:38:31;;;;;;;5.85;2.45;;;;;;;20.02;100.00;101743.19;10273359;28;20089;-81
2022/06/17 20:43:31;;;;;;;2.67;2.08;;;;;;;19.53;100.00;101681.69;10288343;28;20407;-81
2022/06/17 20:53:51;;;;;;;4.13;2.13;;;;;;;19.85;100.00;101724.94;10284515;28;20442;-77
2022/06/17 20:58:53;;;;;;;4.40;2.38;;;;;;;19.81;100.00;101737.84;10271632;28;20051;-77
2022/06/17 21:03:53;;;;;;;5.35;1.95;;;;;;;19.51;100.00;101705.41;10269959;28;20099;-82
2022/06/17 21:08:54;;;;;;;4.93;2.58;;;;;;;19.52;100.00;101721.88;10276643;28;20073;-77
2022/06/17 21:13:54;;;;;;;5.05;2.33;;;;;;;19.42;100.00;101715.56;10281496;28;20035;-77
2022/06/17 21:18:55;;;;;;;4.88;2.50;;;;;;;19.36;100.00;101709.19;10251480;28;20514;-77
2022/06/17 21:23:55;;;;;;;4.72;2.70;;;;;;;19.22;100.00;101686.72;10243191;28;20027;-76
2022/06/17 21:28:57;;;;;;;3.67;2.00;;;;;;;19.33;100.00;101698.63;10264705;28;20031;-77
2022/06/17 21:33:58;;;;;;;3.13;2.55;;;;;;;19.26;100.00;101692.53;10257586;28;20051;-77
2022/06/17 21:39:03;;;;;;;4.03;2.42;;;;;;;19.08;100.00;101674.53;10285085;28;20532;-78
2022/06/17 21:44:03;;;;;;;4.40;2.20;;;;;;;19.07;100.00;101684.88;10283816;28;20046;-77
2022/06/17 21:49:04;;;;;;;3.42;2.72;;;;;;;19.00;100.00;101678.00;10298968;28;20043;-77
2022/06/17 21:54:04;;;;;;;4.45;2.47;;;;;;;18.94;100.00;101677.19;10266346;28;20039;-78
2022/06/17 21:59:05;;;;;;;3.97;2.42;;;;;;;18.87;100.00;101669.16;10266368;28;20046;-77
2022/06/17 22:04:09;;;;;;;4.90;2.65;;;;;;;18.79;100.00;101657.78;10276189;28;20027;-78
2022/06/17 22:09:14;;;;;;;8.38;3.55;;;;;;;18.73;100.00;101660.59;10253345;28;20346;-78
2022/06/17 22:14:17;;;;;;;5.30;2.80;;;;;;;18.71;100.00;101660.03;10261480;28;20039;-77
2022/06/17 22:19:17;;;;;;;5.10;3.30;;;;;;;18.66;100.00;101650.88;10295478;28;20043;-77
2022/06/17 22:24:25;;;;;;;4.45;3.30;;;;;;;18.57;100.00;101642.28;10295438;28;20042;-77
2022/06/17 22:29:31;;;;;;;7.10;3.30;;;;;;;18.52;100.00;101636.72;10295474;28;20047;-77
2022/06/17 22:34:31;;;;;;;9.82;3.45;;;;;;;18.43;100.00;101625.38;10278976;28;20039;-77
2022/06/17 22:39:32;;;;;;;6.55;3.30;;;;;;;18.46;100.00;101635.09;10252017;28;20047;-77
2022/06/17 22:44:33;;;;;;;8.95;3.33;;;;;;;18.37;100.00;101631.28;10273400;28;20079;-77
2022/06/17 22:49:34;;;;;;;6.90;3.30;;;;;;;18.25;100.00;101624.13;10275694;28;20038;-76
2022/06/17 22:54:35;;;;;;;5.75;3.53;;;;;;;18.12;100.00;101614.41;10260502;28;20039;-77
2022/06/17 22:59:35;;;;;;;6.43;3.35;;;;;;;18.15;100.00;101613.03;10241972;28;20039;-77
2022/06/17 23:09:55;;;;;;;6.90;3.53;;;;;;;17.94;100.00;101618.69;10295392;28;20046;-77
2022/06/17 23:14:55;;;;;;;4.07;3.13;;;;;;;17.83;100.00;101616.25;10294435;28;20042;-77
2022/06/17 23:19:59;;;;;;;4.03;2.95;;;;;;;17.67;100.00;101607.06;10295936;28;20050;-77
2022/06/17 23:25:01;;;;;;;8.07;3.60;;;;;;;17.63;100.00;101608.75;10273985;28;20587;-77
2022/06/17 23:30:01;;;;;;;6.97;3.72;;;;;;;17.46;100.00;101596.00;10291780;28;20122;-77
2022/06/17 23:35:02;;;;;;;6.72;3.67;;;;;;;17.42;100.00;101594.91;10277932;28;20043;-77
2022/06/17 23:40:12;;;;;;;5.50;3.70;;;;;;;17.29;100.00;101589.94;10292658;28;20095;-77
2022/06/17 23:45:13;;;;;;;6.38;4.03;;;;;;;17.26;100.00;101613.63;10257309;28;20511;-77
2022/06/17 23:50:27;;;;;;;6.63;4.13;;;;;;;17.20;100.00;101589.69;10269575;28;20599;-77
2022/06/17 23:55:27;;;;;;;6.65;3.92;;;;;;;17.13;100.00;101589.13;10292235;28;20073;-79
